sensor_id;sensor_type;location;lat;lon;timestamp;pressure;altitude;pressure_sealevel;temperature;humidity
68376;BME280;55318;52.068;5.188;2023-02-20T00:01:11;102561.99999999999;;;8.31;88.94
68376;BME280;55318;52.068;5.188;2023-02-20T00:02:48;102557.0;;;8.14;89.24
68376;BME280;55318;52.068;5.188;2023-02-20T00:04:26;102553.0;;;8.28;89.14
68376;BME280;55318;52.068;5.188;2023-02-20T00:07:38;102548.0;;;8.07;89.86
68376;BME280;55318;52.068;5.188;2023-02-20T00:09:16;102542.0;;;8.23;89.43
68376;BME280;55318;52.068;5.188;2023-02-20T00:10:53;102534.99999999999;;;8.17;89.6
68376;BME280;55318;52.068;5.188;2023-02-20T00:14:06;102520.0;;;8.31;89.44
68376;BME280;55318;52.068;5.188;2023-02-20T00:15:43;102525.0;;;8.22;89.33
68376;BME280;55318;52.068;5.188;2023-02-20T00:17:20;102524.0;;;8.39;89.07
68376;BME280;55318;52.068;5.188;2023-02-20T00:18:56;102530.0;;;8.44;88.79
68376;BME280;55318;52.068;5.188;2023-02-20T00:22:12;102533.99999999999;;;8.35;88.84
68376;BME280;55318;52.068;5.188;2023-02-20T00:23:48;102517.0;;;8.42;88.54
68376;BME280;55318;52.068;5.188;2023-02-20T00:25:25;102513.00000000001;;;8.41;88.86
68376;BME280;55318;52.068;5.188;2023-02-20T00:28:40;102521.0;;;8.57;88.33
68376;BME280;55318;52.068;5.188;2023-02-20T00:30:20;102524.0;;;8.56;88.25
68376;BME280;55318;52.068;5.188;2023-02-20T00:31:57;102516.00000000001;;;8.55;88.41
68376;BME280;55318;52.068;5.188;2023-02-20T00:33:36;102515.00000000001;;;8.53;88.34
68376;BME280;55318;52.068;5.188;2023-02-20T00:36:49;102516.00000000001;;;8.56;88.55
68376;BME280;55318;52.068;5.188;2023-02-20T00:38:27;102517.0;;;8.55;88.31
68376;BME280;55318;52.068;5.188;2023-02-20T00:40:06;102516.00000000001;;;8.71;87.72
68376;BME280;55318;52.068;5.188;2023-02-20T00:43:19;102513.00000000001;;;8.73;87.34
68376;BME280;55318;52.068;5.188;2023-02-20T00:44:56;102513.00000000001;;;8.82;86.91
68376;BME280;55318;52.068;5.188;2023-02-20T00:46:33;102505.0;;;8.67;87.27
68376;BME280;55318;52.068;5.188;2023-02-20T00:48:11;102501.0;;;8.64;87.31
68376;BME280;55318;52.068;5.188;2023-02-20T00:51:24;102500.0;;;8.53;87.58
68376;BME280;55318;52.068;5.188;2023-02-20T00:53:02;102502.0;;;8.56;87.54
68376;BME280;55318;52.068;5.188;2023-02-20T00:54:39;102497.0;;;8.44;88.17
68376;BME280;55318;52.068;5.188;2023-02-20T00:57:52;102496.0;;;8.6;87.61
68376;BME280;55318;52.068;5.188;2023-02-20T00:59:29;102495.0;;;8.49;88.22
68376;BME280;55318;52.068;5.188;2023-02-20T01:01:05;102495.0;;;8.45;87.71
68376;BME280;55318;52.068;5.188;2023-02-20T01:04:19;102494.0;;;8.66;87.45
68376;BME280;55318;52.068;5.188;2023-02-20T01:05:56;102484.99999999999;;;8.56;87.35
68376;BME280;55318;52.068;5.188;2023-02-20T01:07:33;102483.0;;;8.44;87.73
68376;BME280;55318;52.068;5.188;2023-02-20T01:09:11;102480.0;;;8.39;88.01
68376;BME280;55318;52.068;5.188;2023-02-20T01:12:26;102474.0;;;8.45;87.75
68376;BME280;55318;52.068;5.188;2023-02-20T01:14:02;102474.0;;;8.25;88.56
68376;BME280;55318;52.068;5.188;2023-02-20T01:15:39;102458.99999999999;;;8.23;88.93
68376;BME280;55318;52.068;5.188;2023-02-20T01:18:52;102451.0;;;8.27;88.7
68376;BME280;55318;52.068;5.188;2023-02-20T01:20:29;102441.00000000001;;;8.31;88.58
68376;BME280;55318;52.068;5.188;2023-02-20T01:22:07;102423.0;;;8.09;89.26
68376;BME280;55318;52.068;5.188;2023-02-20T01:23:44;102420.0;;;8.2;89.08
68376;BME280;55318;52.068;5.188;2023-02-20T01:26:58;102421.0;;;8.01;89.91
68376;BME280;55318;52.068;5.188;2023-02-20T01:28:35;102407.0;;;7.98;90.42
68376;BME280;55318;52.068;5.188;2023-02-20T01:30:12;102403.0;;;7.99;90.19
68376;BME280;55318;52.068;5.188;2023-02-20T01:33:27;102409.99999999999;;;8.08;90.07
68376;BME280;55318;52.068;5.188;2023-02-20T01:35:05;102411.99999999999;;;7.96;90.95
68376;BME280;55318;52.068;5.188;2023-02-20T01:36:46;102416.00000000001;;;7.9;91.45
68376;BME280;55318;52.068;5.188;2023-02-20T01:38:24;102415.00000000001;;;7.94;91.65
68376;BME280;55318;52.068;5.188;2023-02-20T01:41:39;102413.00000000001;;;7.78;92.74
68376;BME280;55318;52.068;5.188;2023-02-20T01:43:16;102409.99999999999;;;7.92;92.55
68376;BME280;55318;52.068;5.188;2023-02-20T01:44:53;102404.0;;;7.8;93.26
68376;BME280;55318;52.068;5.188;2023-02-20T01:48:26;102408.99999999999;;;7.87;93.39
68376;BME280;55318;52.068;5.188;2023-02-20T01:50:05;102408.99999999999;;;7.95;93.42
68376;BME280;55318;52.068;5.188;2023-02-20T01:51:46;102407.0;;;7.94;93.57
68376;BME280;55318;52.068;5.188;2023-02-20T01:53:28;102397.0;;;7.98;93.65
68376;BME280;55318;52.068;5.188;2023-02-20T01:55:10;102390.0;;;7.98;93.64
68376;BME280;55318;52.068;5.188;2023-02-20T01:58:30;102395.0;;;7.94;94.07
68376;BME280;55318;52.068;5.188;2023-02-20T02:00:14;102398.0;;;7.96;94.3
68376;BME280;55318;52.068;5.188;2023-02-20T02:01:53;102398.0;;;8.0;94.21
68376;BME280;55318;52.068;5.188;2023-02-20T02:03:32;102392.0;;;7.94;94.54
68376;BME280;55318;52.068;5.188;2023-02-20T02:06:51;102389.0;;;7.96;94.49
68376;BME280;55318;52.068;5.188;2023-02-20T02:08:30;102398.0;;;8.23;93.76
68376;BME280;55318;52.068;5.188;2023-02-20T02:10:12;102401.0;;;8.23;93.7
68376;BME280;55318;52.068;5.188;2023-02-20T02:11:50;102393.0;;;8.08;94.5
68376;BME280;55318;52.068;5.188;2023-02-20T02:15:13;102390.0;;;8.23;94.45
68376;BME280;55318;52.068;5.188;2023-02-20T02:17:05;102384.0;;;8.2;94.78
68376;BME280;55318;52.068;5.188;2023-02-20T02:18:51;102387.0;;;8.35;94.88
68376;BME280;55318;52.068;5.188;2023-02-20T02:22:56;102384.0;;;8.55;94.18
68376;BME280;55318;52.068;5.188;2023-02-20T02:23:43;102388.0;;;8.33;95.19
68376;BME280;55318;52.068;5.188;2023-02-20T02:28:45;102378.0;;;8.27;95.87
68376;BME280;55318;52.068;5.188;2023-02-20T02:30:35;102382.0;;;8.23;96.34
68376;BME280;55318;52.068;5.188;2023-02-20T02:31:31;102376.0;;;8.43;95.73
68376;BME280;55318;52.068;5.188;2023-02-20T02:32:33;102376.0;;;8.43;95.73
68376;BME280;55318;52.068;5.188;2023-02-20T02:33:30;102375.0;;;8.33;95.85
68376;BME280;55318;52.068;5.188;2023-02-20T02:35:27;102380.0;;;8.48;95.93
68376;BME280;55318;52.068;5.188;2023-02-20T02:38:36;102371.0;;;8.28;96.77
68376;BME280;55318;52.068;5.188;2023-02-20T02:40:26;102375.0;;;8.41;96.56
68376;BME280;55318;52.068;5.188;2023-02-20T02:42:13;102368.0;;;8.39;96.59
68376;BME280;55318;52.068;5.188;2023-02-20T02:43:56;102366.0;;;8.58;96.44
68376;BME280;55318;52.068;5.188;2023-02-20T02:45:41;102365.0;;;8.38;97.11
68376;BME280;55318;52.068;5.188;2023-02-20T02:49:06;102361.0;;;8.41;97.11
68376;BME280;55318;52.068;5.188;2023-02-20T02:50:48;102357.0;;;8.35;97.79
68376;BME280;55318;52.068;5.188;2023-02-20T02:53:01;102350.0;;;8.32;97.99
68376;BME280;55318;52.068;5.188;2023-02-20T02:54:38;102355.0;;;8.39;98.14
68376;BME280;55318;52.068;5.188;2023-02-20T02:56:32;102355.0;;;8.39;97.95
68376;BME280;55318;52.068;5.188;2023-02-20T02:58:10;102349.0;;;8.47;97.59
68376;BME280;55318;52.068;5.188;2023-02-20T03:01:32;102355.0;;;8.48;97.65
68376;BME280;55318;52.068;5.188;2023-02-20T03:03:16;102362.0;;;8.59;97.26
68376;BME280;55318;52.068;5.188;2023-02-20T03:04:57;102361.0;;;8.52;97.43
68376;BME280;55318;52.068;5.188;2023-02-20T03:06:37;102359.0;;;8.48;97.74
68376;BME280;55318;52.068;5.188;2023-02-20T03:10:22;102353.0;;;8.48;97.79
68376;BME280;55318;52.068;5.188;2023-02-20T03:16:00;102339.0;;;8.6;97.66
68376;BME280;55318;52.068;5.188;2023-02-20T03:17:39;102345.0;;;8.58;97.11
68376;BME280;55318;52.068;5.188;2023-02-20T03:19:29;102343.0;;;8.6;97.7
68376;BME280;55318;52.068;5.188;2023-02-20T03:21:11;102345.0;;;8.56;97.51
68376;BME280;55318;52.068;5.188;2023-02-20T03:24:56;102350.0;;;8.73;97.05
68376;BME280;55318;52.068;5.188;2023-02-20T03:26:36;102347.0;;;8.6;97.55
68376;BME280;55318;52.068;5.188;2023-02-20T03:28:18;102345.0;;;8.67;97.39
68376;BME280;55318;52.068;5.188;2023-02-20T03:29:58;102337.0;;;8.68;97.38
68376;BME280;55318;52.068;5.188;2023-02-20T03:31:40;102334.0;;;8.81;96.65
68376;BME280;55318;52.068;5.188;2023-02-20T03:44:25;102334.0;;;8.81;96.77
68376;BME280;55318;52.068;5.188;2023-02-20T03:46:06;102330.0;;;8.94;96.53
68376;BME280;55318;52.068;5.188;2023-02-20T03:49:31;102331.0;;;8.89;96.54
68376;BME280;55318;52.068;5.188;2023-02-20T03:52:53;102327.0;;;8.97;96.16
68376;BME280;55318;52.068;5.188;2023-02-20T03:54:32;102327.0;;;8.84;96.89
68376;BME280;55318;52.068;5.188;2023-02-20T03:57:58;102321.0;;;8.8;97.26
68376;BME280;55318;52.068;5.188;2023-02-20T03:59:39;102312.0;;;8.88;97.17
68376;BME280;55318;52.068;5.188;2023-02-20T04:01:19;102315.0;;;8.75;97.84
68376;BME280;55318;52.068;5.188;2023-02-20T04:03:02;102307.0;;;8.59;98.4
68376;BME280;55318;52.068;5.188;2023-02-20T04:06:27;102311.0;;;8.73;98.41
68376;BME280;55318;52.068;5.188;2023-02-20T04:08:09;102312.0;;;8.92;97.46
68376;BME280;55318;52.068;5.188;2023-02-20T04:09:48;102303.0;;;8.93;96.7
68376;BME280;55318;52.068;5.188;2023-02-20T04:11:29;102307.0;;;8.96;96.52
68376;BME280;55318;52.068;5.188;2023-02-20T04:14:50;102302.0;;;8.92;97.06
68376;BME280;55318;52.068;5.188;2023-02-20T04:16:31;102305.0;;;8.92;97.05
68376;BME280;55318;52.068;5.188;2023-02-20T04:18:14;102307.0;;;8.94;96.8
68376;BME280;55318;52.068;5.188;2023-02-20T04:19:52;102306.0;;;9.01;96.58
68376;BME280;55318;52.068;5.188;2023-02-20T04:23:15;102300.0;;;9.08;95.87
68376;BME280;55318;52.068;5.188;2023-02-20T04:24:56;102305.0;;;9.13;95.45
68376;BME280;55318;52.068;5.188;2023-02-20T04:26:36;102303.0;;;9.11;95.79
68376;BME280;55318;52.068;5.188;2023-02-20T04:28:14;102300.0;;;9.1;95.81
68376;BME280;55318;52.068;5.188;2023-02-20T04:31:29;102300.0;;;9.01;96.5
68376;BME280;55318;52.068;5.188;2023-02-20T04:33:08;102290.0;;;9.05;96.36
68376;BME280;55318;52.068;5.188;2023-02-20T04:34:45;102297.0;;;9.02;96.79
68376;BME280;55318;52.068;5.188;2023-02-20T04:36:23;102296.0;;;9.03;96.67
68376;BME280;55318;52.068;5.188;2023-02-20T04:39:37;102302.0;;;9.06;96.42
68376;BME280;55318;52.068;5.188;2023-02-20T04:41:15;102305.0;;;8.97;96.87
68376;BME280;55318;52.068;5.188;2023-02-20T04:42:51;102299.0;;;8.98;96.82
68376;BME280;55318;52.068;5.188;2023-02-20T04:46:09;102302.0;;;9.06;96.85
68376;BME280;55318;52.068;5.188;2023-02-20T04:47:46;102302.0;;;9.0;96.9
68376;BME280;55318;52.068;5.188;2023-02-20T04:49:23;102297.0;;;9.05;96.58
68376;BME280;55318;52.068;5.188;2023-02-20T04:51:00;102296.0;;;9.06;96.53
68376;BME280;55318;52.068;5.188;2023-02-20T04:54:14;102297.0;;;9.08;96.5
68376;BME280;55318;52.068;5.188;2023-02-20T04:55:51;102305.0;;;9.09;96.41
68376;BME280;55318;52.068;5.188;2023-02-20T04:57:28;102302.0;;;9.21;95.9
68376;BME280;55318;52.068;5.188;2023-02-20T05:00:43;102290.0;;;9.24;95.66
68376;BME280;55318;52.068;5.188;2023-02-20T05:02:20;102292.0;;;9.25;95.47
68376;BME280;55318;52.068;5.188;2023-02-20T05:03:57;102302.0;;;9.23;95.22
68376;BME280;55318;52.068;5.188;2023-02-20T05:05:34;102299.0;;;9.18;95.58
68376;BME280;55318;52.068;5.188;2023-02-20T05:08:48;102298.0;;;9.19;95.66
68376;BME280;55318;52.068;5.188;2023-02-20T05:10:26;102293.0;;;9.01;96.06
68376;BME280;55318;52.068;5.188;2023-02-20T05:12:04;102295.0;;;9.32;95.38
68376;BME280;55318;52.068;5.188;2023-02-20T05:15:17;102298.0;;;9.21;95.65
68376;BME280;55318;52.068;5.188;2023-02-20T05:16:55;102297.0;;;9.32;95.44
68376;BME280;55318;52.068;5.188;2023-02-20T05:18:32;102300.0;;;9.31;95.32
68376;BME280;55318;52.068;5.188;2023-02-20T05:20:10;102300.0;;;9.35;95.05
68376;BME280;55318;52.068;5.188;2023-02-20T05:24:00;102298.0;;;9.39;94.84
68376;BME280;55318;52.068;5.188;2023-02-20T05:25:36;102299.0;;;9.27;94.9
68376;BME280;55318;52.068;5.188;2023-02-20T05:27:16;102296.0;;;9.34;94.68
68376;BME280;55318;52.068;5.188;2023-02-20T05:28:53;102305.0;;;9.27;94.9
68376;BME280;55318;52.068;5.188;2023-02-20T05:32:07;102301.0;;;9.25;95.19
68376;BME280;55318;52.068;5.188;2023-02-20T05:33:43;102310.0;;;9.3;94.78
68376;BME280;55318;52.068;5.188;2023-02-20T05:35:21;102308.0;;;9.36;94.5
68376;BME280;55318;52.068;5.188;2023-02-20T05:36:58;102305.0;;;9.48;94.21
68376;BME280;55318;52.068;5.188;2023-02-20T05:40:11;102305.0;;;9.56;93.6
68376;BME280;55318;52.068;5.188;2023-02-20T05:41:48;102303.0;;;9.6;93.3
68376;BME280;55318;52.068;5.188;2023-02-20T05:43:24;102307.0;;;9.63;93.46
68376;BME280;55318;52.068;5.188;2023-02-20T05:46:41;102315.0;;;9.66;92.86
68376;BME280;55318;52.068;5.188;2023-02-20T05:48:18;102301.0;;;9.6;92.82
68376;BME280;55318;52.068;5.188;2023-02-20T05:49:55;102291.0;;;9.65;92.88
68376;BME280;55318;52.068;5.188;2023-02-20T05:51:31;102300.0;;;9.48;92.91
68376;BME280;55318;52.068;5.188;2023-02-20T05:54:45;102300.0;;;9.52;92.91
68376;BME280;55318;52.068;5.188;2023-02-20T05:56:22;102299.0;;;9.63;92.83
68376;BME280;55318;52.068;5.188;2023-02-20T05:57:59;102294.0;;;9.44;93.14
68376;BME280;55318;52.068;5.188;2023-02-20T06:01:17;102295.0;;;9.5;93.43
68376;BME280;55318;52.068;5.188;2023-02-20T06:02:54;102302.0;;;9.56;92.87
68376;BME280;55318;52.068;5.188;2023-02-20T06:04:30;102300.0;;;9.48;93.4
68376;BME280;55318;52.068;5.188;2023-02-20T06:07:42;102293.0;;;9.32;94.11
68376;BME280;55318;52.068;5.188;2023-02-20T06:09:20;102284.0;;;9.39;93.94
68376;BME280;55318;52.068;5.188;2023-02-20T06:10:56;102288.0;;;9.56;92.97
68376;BME280;55318;52.068;5.188;2023-02-20T06:12:33;102283.0;;;9.51;92.92
68376;BME280;55318;52.068;5.188;2023-02-20T06:15:47;102290.0;;;9.56;92.49
68376;BME280;55318;52.068;5.188;2023-02-20T06:17:24;102295.0;;;9.56;92.36
68376;BME280;55318;52.068;5.188;2023-02-20T06:19:01;102295.0;;;9.58;92.66
68376;BME280;55318;52.068;5.188;2023-02-20T06:22:15;102296.0;;;9.67;92.15
68376;BME280;55318;52.068;5.188;2023-02-20T06:23:53;102292.0;;;9.64;92.58
68376;BME280;55318;52.068;5.188;2023-02-20T06:25:29;102291.0;;;9.55;92.74
68376;BME280;55318;52.068;5.188;2023-02-20T06:27:07;102293.0;;;9.63;92.41
68376;BME280;55318;52.068;5.188;2023-02-20T06:30:20;102296.0;;;9.56;92.59
68376;BME280;55318;52.068;5.188;2023-02-20T06:31:58;102294.0;;;9.65;91.78
68376;BME280;55318;52.068;5.188;2023-02-20T06:33:34;102290.0;;;9.73;91.71
68376;BME280;55318;52.068;5.188;2023-02-20T06:36:50;102294.0;;;9.57;92.34
68376;BME280;55318;52.068;5.188;2023-02-20T06:38:27;102292.0;;;9.57;92.19
68376;BME280;55318;52.068;5.188;2023-02-20T06:40:04;102293.0;;;9.48;92.34
68376;BME280;55318;52.068;5.188;2023-02-20T06:41:42;102297.0;;;9.64;91.98
68376;BME280;55318;52.068;5.188;2023-02-20T06:44:56;102300.0;;;9.6;92.23
68376;BME280;55318;52.068;5.188;2023-02-20T06:46:33;102298.0;;;9.8;91.33
68376;BME280;55318;52.068;5.188;2023-02-20T06:48:10;102299.0;;;9.71;91.33
68376;BME280;55318;52.068;5.188;2023-02-20T06:51:27;102305.0;;;9.55;92.17
68376;BME280;55318;52.068;5.188;2023-02-20T06:53:03;102309.0;;;9.56;92.14
68376;BME280;55318;52.068;5.188;2023-02-20T06:54:42;102308.0;;;9.72;91.69
68376;BME280;55318;52.068;5.188;2023-02-20T06:57:59;102305.0;;;9.68;91.77
68376;BME280;55318;52.068;5.188;2023-02-20T06:59:40;102302.0;;;9.57;92.38
68376;BME280;55318;52.068;5.188;2023-02-20T07:01:21;102299.0;;;9.69;91.87
68376;BME280;55318;52.068;5.188;2023-02-20T07:02:59;102296.0;;;9.61;91.8
68376;BME280;55318;52.068;5.188;2023-02-20T07:06:14;102302.0;;;9.57;92.31
68376;BME280;55318;52.068;5.188;2023-02-20T07:07:51;102301.0;;;9.64;92.07
68376;BME280;55318;52.068;5.188;2023-02-20T07:09:28;102311.0;;;9.63;92.13
68376;BME280;55318;52.068;5.188;2023-02-20T07:11:05;102312.0;;;9.75;91.77
68376;BME280;55318;52.068;5.188;2023-02-20T07:14:18;102307.0;;;9.51;92.37
68376;BME280;55318;52.068;5.188;2023-02-20T07:15:56;102311.0;;;9.51;92.33
68376;BME280;55318;52.068;5.188;2023-02-20T07:17:33;102313.0;;;9.44;93.09
68376;BME280;55318;52.068;5.188;2023-02-20T07:20:48;102314.0;;;9.63;92.49
68376;BME280;55318;52.068;5.188;2023-02-20T07:22:27;102313.0;;;9.72;92.06
68376;BME280;55318;52.068;5.188;2023-02-20T07:24:05;102311.0;;;9.67;92.28
68376;BME280;55318;52.068;5.188;2023-02-20T07:25:42;102305.0;;;9.69;92.49
68376;BME280;55318;52.068;5.188;2023-02-20T07:28:58;102310.0;;;9.66;92.41
68376;BME280;55318;52.068;5.188;2023-02-20T07:30:35;102312.0;;;9.68;92.3
68376;BME280;55318;52.068;5.188;2023-02-20T07:32:12;102301.0;;;9.64;92.21
68376;BME280;55318;52.068;5.188;2023-02-20T07:35:26;102312.0;;;9.58;92.65
68376;BME280;55318;52.068;5.188;2023-02-20T07:37:02;102303.0;;;9.55;93.34
68376;BME280;55318;52.068;5.188;2023-02-20T07:38:40;102303.0;;;9.68;92.82
68376;BME280;55318;52.068;5.188;2023-02-20T07:40:18;102294.0;;;9.6;92.98
68376;BME280;55318;52.068;5.188;2023-02-20T07:43:32;102308.0;;;9.73;92.97
68376;BME280;55318;52.068;5.188;2023-02-20T07:45:09;102309.0;;;9.68;93.02
68376;BME280;55318;52.068;5.188;2023-02-20T07:46:46;102312.0;;;9.82;92.68
68376;BME280;55318;52.068;5.188;2023-02-20T07:49:59;102310.0;;;9.72;92.86
68376;BME280;55318;52.068;5.188;2023-02-20T07:51:35;102307.0;;;9.6;93.08
68376;BME280;55318;52.068;5.188;2023-02-20T07:53:13;102312.0;;;9.77;93.13
68376;BME280;55318;52.068;5.188;2023-02-20T07:56:27;102312.0;;;9.71;93.4
68376;BME280;55318;52.068;5.188;2023-02-20T07:58:04;102318.0;;;9.74;93.4
68376;BME280;55318;52.068;5.188;2023-02-20T07:59:41;102306.0;;;9.65;93.7
68376;BME280;55318;52.068;5.188;2023-02-20T08:01:18;102305.0;;;9.72;93.63
68376;BME280;55318;52.068;5.188;2023-02-20T08:04:31;102310.0;;;9.66;93.67
68376;BME280;55318;52.068;5.188;2023-02-20T08:06:07;102310.0;;;9.72;93.57
68376;BME280;55318;52.068;5.188;2023-02-20T08:07:44;102310.0;;;9.73;93.65
68376;BME280;55318;52.068;5.188;2023-02-20T08:10:57;102305.0;;;9.64;94.12
68376;BME280;55318;52.068;5.188;2023-02-20T08:12:34;102305.0;;;9.81;93.83
68376;BME280;55318;52.068;5.188;2023-02-20T08:14:12;102297.0;;;9.76;93.58
68376;BME280;55318;52.068;5.188;2023-02-20T08:17:25;102289.0;;;9.77;93.83
68376;BME280;55318;52.068;5.188;2023-02-20T08:19:02;102311.0;;;9.81;93.78
68376;BME280;55318;52.068;5.188;2023-02-20T08:20:38;102305.0;;;9.78;93.65
68376;BME280;55318;52.068;5.188;2023-02-20T08:22:14;102300.0;;;9.92;93.51
68376;BME280;55318;52.068;5.188;2023-02-20T08:25:27;102308.0;;;9.74;94.2
68376;BME280;55318;52.068;5.188;2023-02-20T08:27:04;102305.0;;;9.91;93.79
68376;BME280;55318;52.068;5.188;2023-02-20T08:28:41;102310.0;;;9.84;93.68
68376;BME280;55318;52.068;5.188;2023-02-20T08:31:58;102299.0;;;9.9;93.77
68376;BME280;55318;52.068;5.188;2023-02-20T08:33:34;102300.0;;;9.98;93.64
68376;BME280;55318;52.068;5.188;2023-02-20T08:35:11;102302.0;;;9.97;93.18
68376;BME280;55318;52.068;5.188;2023-02-20T08:36:47;102305.0;;;9.92;93.79
68376;BME280;55318;52.068;5.188;2023-02-20T08:40:08;102296.0;;;9.93;93.81
68376;BME280;55318;52.068;5.188;2023-02-20T08:41:46;102297.0;;;9.98;93.58
68376;BME280;55318;52.068;5.188;2023-02-20T08:43:23;102305.0;;;9.99;93.37
68376;BME280;55318;52.068;5.188;2023-02-20T08:46:36;102301.0;;;9.99;93.08
68376;BME280;55318;52.068;5.188;2023-02-20T08:48:12;102297.0;;;10.07;92.91
68376;BME280;55318;52.068;5.188;2023-02-20T08:49:48;102298.0;;;10.13;92.78
68376;BME280;55318;52.068;5.188;2023-02-20T08:51:25;102296.0;;;10.03;92.98
68376;BME280;55318;52.068;5.188;2023-02-20T08:54:37;102297.0;;;9.91;93.55
68376;BME280;55318;52.068;5.188;2023-02-20T08:56:17;102306.0;;;9.85;94.1
68376;BME280;55318;52.068;5.188;2023-02-20T08:57:55;102296.0;;;9.81;94.24
68376;BME280;55318;52.068;5.188;2023-02-20T09:01:07;102302.0;;;9.94;93.96
68376;BME280;55318;52.068;5.188;2023-02-20T09:02:45;102303.0;;;9.94;93.86
68376;BME280;55318;52.068;5.188;2023-02-20T09:04:23;102299.0;;;10.05;93.87
68376;BME280;55318;52.068;5.188;2023-02-20T09:07:36;102300.0;;;9.94;94.04
68376;BME280;55318;52.068;5.188;2023-02-20T09:09:12;102306.0;;;10.06;93.91
68376;BME280;55318;52.068;5.188;2023-02-20T09:10:48;102305.0;;;10.01;93.88
68376;BME280;55318;52.068;5.188;2023-02-20T09:12:24;102290.0;;;10.06;93.56
68376;BME280;55318;52.068;5.188;2023-02-20T09:15:39;102291.0;;;10.05;94.01
68376;BME280;55318;52.068;5.188;2023-02-20T09:17:15;102295.0;;;10.01;94.07
68376;BME280;55318;52.068;5.188;2023-02-20T09:18:54;102287.0;;;10.01;93.99
68376;BME280;55318;52.068;5.188;2023-02-20T09:22:07;102287.0;;;10.03;93.97
68376;BME280;55318;52.068;5.188;2023-02-20T09:23:44;102281.0;;;10.14;93.67
68376;BME280;55318;52.068;5.188;2023-02-20T09:25:21;102280.0;;;10.23;93.37
68376;BME280;55318;52.068;5.188;2023-02-20T09:28:33;102282.0;;;10.13;93.46
68376;BME280;55318;52.068;5.188;2023-02-20T09:30:14;102286.0;;;10.23;92.9
68376;BME280;55318;52.068;5.188;2023-02-20T09:31:52;102288.0;;;10.24;93.09
68376;BME280;55318;52.068;5.188;2023-02-20T09:33:29;102289.0;;;10.29;92.65
68376;BME280;55318;52.068;5.188;2023-02-20T09:36:41;102291.0;;;10.25;93.02
68376;BME280;55318;52.068;5.188;2023-02-20T09:38:17;102288.0;;;10.08;93.57
68376;BME280;55318;52.068;5.188;2023-02-20T09:39:53;102290.0;;;10.16;93.37
68376;BME280;55318;52.068;5.188;2023-02-20T09:43:28;102283.0;;;10.28;92.91
68376;BME280;55318;52.068;5.188;2023-02-20T09:45:18;102286.0;;;10.05;93.75
68376;BME280;55318;52.068;5.188;2023-02-20T09:47:02;102281.0;;;10.14;93.39
68376;BME280;55318;52.068;5.188;2023-02-20T09:48:55;102278.0;;;10.26;92.92
68376;BME280;55318;52.068;5.188;2023-02-20T09:50:47;102293.0;;;10.26;92.71
68376;BME280;55318;52.068;5.188;2023-02-20T09:52:28;102295.0;;;10.28;92.59
68376;BME280;55318;52.068;5.188;2023-02-20T09:55:47;102293.0;;;10.21;92.7
68376;BME280;55318;52.068;5.188;2023-02-20T09:57:26;102294.0;;;10.24;92.51
68376;BME280;55318;52.068;5.188;2023-02-20T09:59:07;102298.0;;;10.26;92.8
68376;BME280;55318;52.068;5.188;2023-02-20T10:00:49;102305.0;;;10.21;92.97
68376;BME280;55318;52.068;5.188;2023-02-20T10:04:09;102309.0;;;10.14;93.12
68376;BME280;55318;52.068;5.188;2023-02-20T10:05:49;102301.0;;;10.23;92.91
68376;BME280;55318;52.068;5.188;2023-02-20T10:07:27;102301.0;;;10.38;92.66
68376;BME280;55318;52.068;5.188;2023-02-20T10:09:10;102293.0;;;10.28;92.26
68376;BME280;55318;52.068;5.188;2023-02-20T10:12:30;102295.0;;;10.24;92.61
68376;BME280;55318;52.068;5.188;2023-02-20T10:14:23;102289.0;;;10.17;92.88
68376;BME280;55318;52.068;5.188;2023-02-20T10:16:18;102288.0;;;10.23;92.64
68376;BME280;55318;52.068;5.188;2023-02-20T10:18:05;102299.0;;;10.23;93.03
68376;BME280;55318;52.068;5.188;2023-02-20T10:19:55;102282.0;;;10.29;92.87
68376;BME280;55318;52.068;5.188;2023-02-20T10:21:48;102283.0;;;10.33;92.41
68376;BME280;55318;52.068;5.188;2023-02-20T10:23:36;102296.0;;;10.27;92.74
68376;BME280;55318;52.068;5.188;2023-02-20T10:27:11;102286.0;;;10.27;92.96
68376;BME280;55318;52.068;5.188;2023-02-20T10:29:04;102286.0;;;10.22;92.96
68376;BME280;55318;52.068;5.188;2023-02-20T10:30:55;102291.0;;;10.42;92.47
68376;BME280;55318;52.068;5.188;2023-02-20T10:32:39;102293.0;;;10.51;91.96
68376;BME280;55318;52.068;5.188;2023-02-20T10:34:22;102298.0;;;10.41;91.93
68376;BME280;55318;52.068;5.188;2023-02-20T10:36:08;102286.0;;;10.38;92.14
68376;BME280;55318;52.068;5.188;2023-02-20T10:39:31;102286.0;;;10.22;92.69
68376;BME280;55318;52.068;5.188;2023-02-20T10:41:14;102283.0;;;10.45;91.98
68376;BME280;55318;52.068;5.188;2023-02-20T10:43:00;102293.0;;;10.49;91.54
68376;BME280;55318;52.068;5.188;2023-02-20T10:44:45;102306.0;;;10.75;90.52
68376;BME280;55318;52.068;5.188;2023-02-20T10:48:09;102305.0;;;10.68;90.55
68376;BME280;55318;52.068;5.188;2023-02-20T10:49:51;102284.0;;;10.65;90.27
68376;BME280;55318;52.068;5.188;2023-02-20T10:51:35;102275.0;;;10.63;90.43
68376;BME280;55318;52.068;5.188;2023-02-20T10:53:22;102281.0;;;10.49;90.96
68376;BME280;55318;52.068;5.188;2023-02-20T10:55:05;102282.0;;;10.52;90.81
68376;BME280;55318;52.068;5.188;2023-02-20T10:58:36;102293.0;;;10.58;90.69
68376;BME280;55318;52.068;5.188;2023-02-20T11:00:19;102292.0;;;10.5;90.52
68376;BME280;55318;52.068;5.188;2023-02-20T11:01:59;102284.0;;;10.48;90.81
68376;BME280;55318;52.068;5.188;2023-02-20T11:03:43;102278.0;;;10.52;90.8
68376;BME280;55318;52.068;5.188;2023-02-20T11:05:25;102280.0;;;10.35;91.12
68376;BME280;55318;52.068;5.188;2023-02-20T11:08:47;102289.0;;;10.45;90.68
68376;BME280;55318;52.068;5.188;2023-02-20T11:10:23;102302.0;;;10.46;90.78
68376;BME280;55318;52.068;5.188;2023-02-20T11:12:00;102298.0;;;10.46;90.62
68376;BME280;55318;52.068;5.188;2023-02-20T11:15:17;102273.0;;;10.43;91.09
68376;BME280;55318;52.068;5.188;2023-02-20T11:16:58;102269.0;;;10.47;90.8
68376;BME280;55318;52.068;5.188;2023-02-20T11:18:37;102269.0;;;10.62;90.39
68376;BME280;55318;52.068;5.188;2023-02-20T11:20:47;102263.0;;;10.45;90.55
68376;BME280;55318;52.068;5.188;2023-02-20T11:22:38;102270.0;;;10.42;90.93